地図

経路データ

SID SEASON NUMBER BASIN SUBBASIN NAME ISO_TIME NATURE LAT LON WMO_WIND WMO_PRES WMO_AGENCY TRACK_TYPE DIST2LAND LANDFALL IFLAG USA_AGENCY USA_ATCF_ID USA_LAT USA_LON USA_RECORD USA_STATUS USA_WIND USA_PRES USA_SSHS USA_R34_NE USA_R34_SE USA_R34_SW USA_R34_NW USA_R50_NE USA_R50_SE USA_R50_SW USA_R50_NW USA_R64_NE USA_R64_SE USA_R64_SW USA_R64_NW USA_POCI USA_ROCI USA_RMW USA_EYE TOKYO_LAT TOKYO_LON TOKYO_GRADE TOKYO_WIND TOKYO_PRES TOKYO_R50_DIR TOKYO_R50_LONG TOKYO_R50_SHORT TOKYO_R30_DIR TOKYO_R30_LONG TOKYO_R30_SHORT TOKYO_LAND CMA_LAT CMA_LON CMA_CAT CMA_WIND CMA_PRES HKO_LAT HKO_LON HKO_CAT HKO_WIND HKO_PRES NEWDELHI_LAT NEWDELHI_LON NEWDELHI_GRADE NEWDELHI_WIND NEWDELHI_PRES NEWDELHI_CI NEWDELHI_DP NEWDELHI_POCI REUNION_LAT REUNION_LON REUNION_TYPE REUNION_WIND REUNION_PRES REUNION_TNUM REUNION_CI REUNION_RMW REUNION_R34_NE REUNION_R34_SE REUNION_R34_SW REUNION_R34_NW REUNION_R50_NE REUNION_R50_SE REUNION_R50_SW REUNION_R50_NW REUNION_R64_NE REUNION_R64_SE REUNION_R64_SW REUNION_R64_NW BOM_LAT BOM_LON BOM_TYPE BOM_WIND BOM_PRES BOM_TNUM BOM_CI BOM_RMW BOM_R34_NE BOM_R34_SE BOM_R34_SW BOM_R34_NW BOM_R50_NE BOM_R50_SE BOM_R50_SW BOM_R50_NW BOM_R64_NE BOM_R64_SE BOM_R64_SW BOM_R64_NW BOM_ROCI BOM_POCI BOM_EYE BOM_POS_METHOD BOM_PRES_METHOD NADI_LAT NADI_LON NADI_CAT NADI_WIND NADI_PRES WELLINGTON_LAT WELLINGTON_LON WELLINGTON_WIND WELLINGTON_PRES DS824_LAT DS824_LON DS824_STAGE DS824_WIND DS824_PRES TD9636_LAT TD9636_LON TD9636_STAGE TD9636_WIND TD9636_PRES TD9635_LAT TD9635_LON TD9635_WIND TD9635_PRES TD9635_ROCI NEUMANN_LAT NEUMANN_LON NEUMANN_CLASS NEUMANN_WIND NEUMANN_PRES MLC_LAT MLC_LON MLC_CLASS MLC_WIND MLC_PRES USA_GUST BOM_GUST BOM_GUST_PER REUNION_GUST REUNION_GUST_PER USA_SEAHGT USA_SEARAD_NE USA_SEARAD_SE USA_SEARAD_SW USA_SEARAD_NW STORM_SPEED STORM_DIR
1925175N14126 1925 24 WP MM NOT_NAMED 1925-06-23 22:00:00 NR 13.5000 125.900 main 135 124 __________O___ -1 13.5000 125.900 2 7 277
1925175N14126 1925 24 WP MM NOT_NAMED 1925-06-24 00:00:00 NR 13.5280 125.660 main 124 97 __________P___ -1 13.5280 125.660 2 7 277
1925175N14126 1925 24 WP MM NOT_NAMED 1925-06-24 03:00:00 NR 13.5655 125.308 main 97 65 __________P___ -1 13.5655 125.308 2 7 276
1925175N14126 1925 24 WP MM NOT_NAMED 1925-06-24 06:00:00 NR 13.5921 124.980 main 65 34 __________P___ -1 13.5921 124.980 2 6 273
1925175N14126 1925 24 WP MM NOT_NAMED 1925-06-24 09:00:00 NR 13.6017 124.687 main 34 24 __________P___ -1 13.6017 124.687 2 6 271
1925175N14126 1925 24 WP MM NOT_NAMED 1925-06-24 10:00:00 NR 13.6000 124.600 main 24 10 __________O___ -1 13.6000 124.600 2 5 267
1925175N14126 1925 24 WP MM NOT_NAMED 1925-06-24 12:00:00 NR 13.5899 124.441 main 10 0 __________P___ -1 13.5899 124.441 2 4 266
1925175N14126 1925 24 WP MM NOT_NAMED 1925-06-24 15:00:00 NR 13.5744 124.217 main 0 0 __________P___ -1 13.5744 124.217 2 5 270
1925175N14126 1925 24 WP MM NOT_NAMED 1925-06-24 18:00:00 NR 13.5865 123.965 main 10 0 __________P___ -1 13.5865 123.965 2 6 278
1925175N14126 1925 24 WP MM NOT_NAMED 1925-06-24 21:00:00 NR 13.6577 123.636 main 0 0 __________P___ -1 13.6577 123.636 2 7 284
1925175N14126 1925 24 WP MM NOT_NAMED 1925-06-24 22:00:00 NR 13.7000 123.500 main 0 0 __________O___ -1 13.7000 123.500 2 10 289
1925175N14126 1925 24 WP MM NOT_NAMED 1925-06-25 00:00:00 NR 13.8135 123.161 main 10 0 __________P___ -1 13.8135 123.161 2 12 291
1925175N14126 1925 24 WP MM NOT_NAMED 1925-06-25 03:00:00 NR 14.0464 122.563 main 0 0 __________P___ -1 14.0464 122.563 2 13 293
1925175N14126 1925 24 WP MM NOT_NAMED 1925-06-25 06:00:00 NR 14.3402 121.901 main 21 0 __________P___ -1 14.3402 121.901 2 14 296
1925175N14126 1925 24 WP MM NOT_NAMED 1925-06-25 09:00:00 NR 14.6794 121.222 main 0 0 __________P___ -1 14.6794 121.222 2 15 298
1925175N14126 1925 24 WP MM NOT_NAMED 1925-06-25 10:00:00 NR 14.8000 121.000 main 0 0 __________O___ -1 14.8000 121.000 2 14 300
1925175N14126 1925 24 WP MM NOT_NAMED 1925-06-25 12:00:00 NR 15.0378 120.592 main 0 0 __________P___ -1 15.0378 120.592 2 14 303
1925175N14126 1925 24 WP MM NOT_NAMED 1925-06-25 15:00:00 NR 15.4262 119.985 main 0 0 __________P___ -1 15.4262 119.985 2 14 305
1925175N14126 1925 24 WP MM NOT_NAMED 1925-06-25 18:00:00 NR 15.8390 119.386 main 39 33 __________P___ -1 15.8390 119.386 2 14 306
1925175N14126 1925 24 WP MM NOT_NAMED 1925-06-25 21:00:00 NR 16.2603 118.795 main 101 101 __________P___ -1 16.2603 118.795 2 14 307
1925175N14126 1925 24 WP MM NOT_NAMED 1925-06-25 22:00:00 NR 16.4000 118.600 main 125 125 __________O___ -1 16.4000 118.600 3 14 306
1925175N14126 1925 24 WP MM NOT_NAMED 1925-06-26 00:00:00 NR 16.6582 118.218 main 176 176 __________P___ -1 16.6582 118.218 3 13 305
1925175N14126 1925 24 WP MM NOT_NAMED 1925-06-26 03:00:00 NR 17.0457 117.652 main 237 250 __________P___ -1 17.0457 117.652 3 13 306
1925175N14126 1925 24 WP MM NOT_NAMED 1925-06-26 06:00:00 NR 17.4419 117.083 main 312 317 __________P___ -1 17.4419 117.083 3 14 306
1925175N14126 1925 24 WP MM NOT_NAMED 1925-06-26 09:00:00 NR 17.8563 116.500 main 393 393 __________P___ -1 17.8563 116.500 3 14 307
1925175N14126 1925 24 WP MM NOT_NAMED 1925-06-26 10:00:00 NR 18.0000 116.300 main 417 417 __________O___ -1 18.0000 116.300 4 15 307
1925175N14126 1925 24 WP MM NOT_NAMED 1925-06-26 12:00:00 NR 18.2971 115.890 main 470 405 __________P___ -1 18.2971 115.890 4 15 308
1925175N14126 1925 24 WP MM NOT_NAMED 1925-06-26 15:00:00 NR 18.7629 115.254 main 405 344 __________P___ -1 18.7629 115.254 4 16 308
1925175N14126 1925 24 WP MM NOT_NAMED 1925-06-26 18:00:00 NR 19.2453 114.596 main 344 263 __________P___ -1 19.2453 114.596 4 16 308
1925175N14126 1925 24 WP MM NOT_NAMED 1925-06-26 21:00:00 NR 19.7360 113.925 main 263 235 __________P___ -1 19.7360 113.925 4 16 308
1925175N14126 1925 24 WP MM NOT_NAMED 1925-06-26 22:00:00 NR 19.9000 113.700 main 235 __________O___ -1 19.9000 113.700 4 16 308

デジタル台風データ・検索

IBTrACS Databaseについて

本データベースは、米国NOAAが公開する1842年以降の世界の熱帯低気圧のベストトラックデータアーカイブInternational Best Track Archive for Climate Stewardship (IBTrACS)を、ウェブで閲覧しやすい形式に変換したものです。

最終更新日:2021-10-19